sensor_id;sensor_type;location;lat;lon;timestamp;P1;durP1;ratioP1;P2;durP2;ratioP2
54197;SDS011;40105;52.366;17.000;2022-09-19T00:01:17;2.97;;;1.33;;
54197;SDS011;40105;52.366;17.000;2022-09-19T00:03:46;8.90;;;2.25;;
54197;SDS011;40105;52.366;17.000;2022-09-19T00:06:15;2.95;;;1.20;;
54197;SDS011;40105;52.366;17.000;2022-09-19T00:08:41;4.80;;;1.48;;
54197;SDS011;40105;52.366;17.000;2022-09-19T00:11:08;5.40;;;1.73;;
54197;SDS011;40105;52.366;17.000;2022-09-19T00:13:34;2.88;;;1.48;;
54197;SDS011;40105;52.366;17.000;2022-09-19T00:16:00;6.30;;;1.15;;
54197;SDS011;40105;52.366;17.000;2022-09-19T00:18:25;6.93;;;2.53;;
54197;SDS011;40105;52.366;17.000;2022-09-19T00:20:51;3.28;;;1.15;;
54197;SDS011;40105;52.366;17.000;2022-09-19T00:23:16;7.10;;;1.30;;
54197;SDS011;40105;52.366;17.000;2022-09-19T00:26:04;4.40;;;1.23;;
54197;SDS011;40105;52.366;17.000;2022-09-19T00:28:30;10.88;;;1.38;;
54197;SDS011;40105;52.366;17.000;2022-09-19T00:30:55;3.35;;;1.48;;
54197;SDS011;40105;52.366;17.000;2022-09-19T00:33:22;2.67;;;1.27;;
54197;SDS011;40105;52.366;17.000;2022-09-19T00:35:47;5.45;;;1.80;;
54197;SDS011;40105;52.366;17.000;2022-09-19T00:38:19;4.18;;;1.20;;
54197;SDS011;40105;52.366;17.000;2022-09-19T00:40:44;8.18;;;1.52;;
54197;SDS011;40105;52.366;17.000;2022-09-19T00:43:11;3.27;;;1.17;;
54197;SDS011;40105;52.366;17.000;2022-09-19T00:45:36;2.33;;;1.20;;
54197;SDS011;40105;52.366;17.000;2022-09-19T00:48:02;2.15;;;1.15;;
54197;SDS011;40105;52.366;17.000;2022-09-19T00:50:27;6.17;;;1.60;;
54197;SDS011;40105;52.366;17.000;2022-09-19T00:52:54;3.50;;;1.45;;
54197;SDS011;40105;52.366;17.000;2022-09-19T00:55:23;5.68;;;1.75;;
54197;SDS011;40105;52.366;17.000;2022-09-19T01:00:17;5.28;;;1.80;;
54197;SDS011;40105;52.366;17.000;2022-09-19T01:02:42;5.23;;;2.13;;
54197;SDS011;40105;52.366;17.000;2022-09-19T01:05:07;4.65;;;2.17;;
54197;SDS011;40105;52.366;17.000;2022-09-19T01:07:52;3.30;;;1.83;;
54197;SDS011;40105;52.366;17.000;2022-09-19T01:18:08;7.22;;;1.25;;
54197;SDS011;40105;52.366;17.000;2022-09-19T01:28:54;5.53;;;2.30;;
54197;SDS011;40105;52.366;17.000;2022-09-19T01:31:25;5.30;;;1.52;;
54197;SDS011;40105;52.366;17.000;2022-09-19T01:34:14;4.30;;;2.30;;
54197;SDS011;40105;52.366;17.000;2022-09-19T01:39:38;5.85;;;1.92;;
54197;SDS011;40105;52.366;17.000;2022-09-19T01:42:04;4.88;;;2.10;;
54197;SDS011;40105;52.366;17.000;2022-09-19T01:44:30;4.20;;;2.17;;
54197;SDS011;40105;52.366;17.000;2022-09-19T01:49:46;7.00;;;2.85;;
54197;SDS011;40105;52.366;17.000;2022-09-19T01:54:59;8.82;;;2.55;;
54197;SDS011;40105;52.366;17.000;2022-09-19T02:02:34;9.70;;;4.63;;
54197;SDS011;40105;52.366;17.000;2022-09-19T02:05:12;13.05;;;4.00;;
54197;SDS011;40105;52.366;17.000;2022-09-19T02:07:44;12.98;;;4.30;;
54197;SDS011;40105;52.366;17.000;2022-09-19T02:10:19;10.18;;;3.83;;
54197;SDS011;40105;52.366;17.000;2022-09-19T02:12:47;10.25;;;4.70;;
54197;SDS011;40105;52.366;17.000;2022-09-19T02:15:15;9.68;;;4.03;;
54197;SDS011;40105;52.366;17.000;2022-09-19T02:17:48;8.35;;;4.38;;
54197;SDS011;40105;52.366;17.000;2022-09-19T02:20:39;9.02;;;4.10;;
54197;SDS011;40105;52.366;17.000;2022-09-19T02:23:04;13.93;;;5.75;;
54197;SDS011;40105;52.366;17.000;2022-09-19T02:25:31;11.07;;;5.47;;
54197;SDS011;40105;52.366;17.000;2022-09-19T02:27:59;14.73;;;7.05;;
54197;SDS011;40105;52.366;17.000;2022-09-19T02:30:25;13.65;;;7.13;;
54197;SDS011;40105;52.366;17.000;2022-09-19T02:32:51;12.65;;;6.03;;
54197;SDS011;40105;52.366;17.000;2022-09-19T02:35:21;15.98;;;7.53;;
54197;SDS011;40105;52.366;17.000;2022-09-19T02:37:50;14.98;;;7.15;;
54197;SDS011;40105;52.366;17.000;2022-09-19T02:40:41;16.95;;;8.02;;
54197;SDS011;40105;52.366;17.000;2022-09-19T02:43:13;15.18;;;6.90;;
54197;SDS011;40105;52.366;17.000;2022-09-19T02:45:47;15.23;;;7.22;;
54197;SDS011;40105;52.366;17.000;2022-09-19T02:53:41;23.73;;;8.88;;
54197;SDS011;40105;52.366;17.000;2022-09-19T02:56:07;12.50;;;7.68;;
54197;SDS011;40105;52.366;17.000;2022-09-19T02:58:41;19.15;;;7.70;;
54197;SDS011;40105;52.366;17.000;2022-09-19T03:03:45;14.07;;;5.95;;
54197;SDS011;40105;52.366;17.000;2022-09-19T03:06:33;13.85;;;6.15;;
54197;SDS011;40105;52.366;17.000;2022-09-19T03:09:00;14.23;;;6.30;;
54197;SDS011;40105;52.366;17.000;2022-09-19T03:11:27;14.70;;;6.00;;
54197;SDS011;40105;52.366;17.000;2022-09-19T03:13:53;18.52;;;7.05;;
54197;SDS011;40105;52.366;17.000;2022-09-19T03:16:23;14.68;;;7.80;;
54197;SDS011;40105;52.366;17.000;2022-09-19T03:18:50;19.23;;;7.00;;
54197;SDS011;40105;52.366;17.000;2022-09-19T03:21:20;13.73;;;6.00;;
54197;SDS011;40105;52.366;17.000;2022-09-19T03:23:48;17.95;;;7.60;;
54197;SDS011;40105;52.366;17.000;2022-09-19T03:26:17;18.05;;;6.57;;
54197;SDS011;40105;52.366;17.000;2022-09-19T03:28:42;10.70;;;4.97;;
54197;SDS011;40105;52.366;17.000;2022-09-19T03:31:08;9.15;;;4.80;;
54197;SDS011;40105;52.366;17.000;2022-09-19T03:33:33;15.10;;;6.00;;
54197;SDS011;40105;52.366;17.000;2022-09-19T03:35:58;15.13;;;6.25;;
54197;SDS011;40105;52.366;17.000;2022-09-19T03:38:31;14.40;;;5.65;;
54197;SDS011;40105;52.366;17.000;2022-09-19T03:40:56;12.15;;;5.15;;
54197;SDS011;40105;52.366;17.000;2022-09-19T03:43:22;11.20;;;5.60;;
54197;SDS011;40105;52.366;17.000;2022-09-19T03:45:47;10.27;;;5.35;;
54197;SDS011;40105;52.366;17.000;2022-09-19T03:48:12;14.97;;;6.20;;
54197;SDS011;40105;52.366;17.000;2022-09-19T03:50:38;17.23;;;6.40;;
54197;SDS011;40105;52.366;17.000;2022-09-19T03:53:03;16.57;;;4.30;;
54197;SDS011;40105;52.366;17.000;2022-09-19T03:55:28;17.03;;;5.67;;
54197;SDS011;40105;52.366;17.000;2022-09-19T03:57:53;13.77;;;5.27;;
54197;SDS011;40105;52.366;17.000;2022-09-19T04:00:18;13.47;;;6.03;;
54197;SDS011;40105;52.366;17.000;2022-09-19T04:02:44;17.88;;;6.50;;
54197;SDS011;40105;52.366;17.000;2022-09-19T04:05:09;10.70;;;4.70;;
54197;SDS011;40105;52.366;17.000;2022-09-19T04:07:34;14.50;;;6.90;;
54197;SDS011;40105;52.366;17.000;2022-09-19T04:10:03;15.00;;;5.50;;
54197;SDS011;40105;52.366;17.000;2022-09-19T04:12:28;14.15;;;5.22;;
54197;SDS011;40105;52.366;17.000;2022-09-19T04:14:53;13.30;;;5.53;;
54197;SDS011;40105;52.366;17.000;2022-09-19T04:17:20;19.67;;;6.15;;
54197;SDS011;40105;52.366;17.000;2022-09-19T04:19:45;19.53;;;6.53;;
54197;SDS011;40105;52.366;17.000;2022-09-19T04:22:10;13.00;;;5.93;;
54197;SDS011;40105;52.366;17.000;2022-09-19T04:24:36;18.58;;;6.22;;
54197;SDS011;40105;52.366;17.000;2022-09-19T04:27:05;19.30;;;6.18;;
54197;SDS011;40105;52.366;17.000;2022-09-19T04:29:32;12.77;;;5.45;;
54197;SDS011;40105;52.366;17.000;2022-09-19T04:31:57;12.20;;;5.57;;
54197;SDS011;40105;52.366;17.000;2022-09-19T04:34:26;10.75;;;5.35;;
54197;SDS011;40105;52.366;17.000;2022-09-19T04:36:52;10.63;;;5.33;;
54197;SDS011;40105;52.366;17.000;2022-09-19T04:39:17;10.33;;;5.47;;
54197;SDS011;40105;52.366;17.000;2022-09-19T04:41:42;11.47;;;5.57;;
54197;SDS011;40105;52.366;17.000;2022-09-19T04:44:08;16.30;;;6.10;;
54197;SDS011;40105;52.366;17.000;2022-09-19T04:46:35;12.50;;;5.40;;
54197;SDS011;40105;52.366;17.000;2022-09-19T04:49:01;13.57;;;5.73;;
54197;SDS011;40105;52.366;17.000;2022-09-19T04:51:30;11.63;;;5.78;;
54197;SDS011;40105;52.366;17.000;2022-09-19T04:53:56;12.35;;;6.30;;
54197;SDS011;40105;52.366;17.000;2022-09-19T04:56:21;17.70;;;6.20;;
54197;SDS011;40105;52.366;17.000;2022-09-19T04:58:46;15.27;;;6.82;;
54197;SDS011;40105;52.366;17.000;2022-09-19T05:01:12;19.10;;;7.78;;
54197;SDS011;40105;52.366;17.000;2022-09-19T05:03:38;13.63;;;6.32;;
54197;SDS011;40105;52.366;17.000;2022-09-19T05:06:03;13.00;;;6.97;;
54197;SDS011;40105;52.366;17.000;2022-09-19T05:08:31;17.13;;;7.03;;
54197;SDS011;40105;52.366;17.000;2022-09-19T05:10:59;13.45;;;6.45;;
54197;SDS011;40105;52.366;17.000;2022-09-19T05:13:25;12.80;;;6.35;;
54197;SDS011;40105;52.366;17.000;2022-09-19T05:15:53;12.57;;;6.75;;
54197;SDS011;40105;52.366;17.000;2022-09-19T05:18:18;13.85;;;6.32;;
54197;SDS011;40105;52.366;17.000;2022-09-19T05:20:46;14.85;;;6.05;;
54197;SDS011;40105;52.366;17.000;2022-09-19T05:23:12;14.15;;;7.72;;
54197;SDS011;40105;52.366;17.000;2022-09-19T05:25:39;21.02;;;7.30;;
54197;SDS011;40105;52.366;17.000;2022-09-19T05:28:04;15.13;;;7.43;;
54197;SDS011;40105;52.366;17.000;2022-09-19T05:30:35;11.90;;;6.97;;
54197;SDS011;40105;52.366;17.000;2022-09-19T05:33:00;11.98;;;7.13;;
54197;SDS011;40105;52.366;17.000;2022-09-19T05:35:27;12.57;;;6.88;;
54197;SDS011;40105;52.366;17.000;2022-09-19T05:37:52;14.27;;;6.87;;
54197;SDS011;40105;52.366;17.000;2022-09-19T05:40:17;12.10;;;6.30;;
54197;SDS011;40105;52.366;17.000;2022-09-19T05:42:44;12.98;;;6.75;;
54197;SDS011;40105;52.366;17.000;2022-09-19T05:45:11;12.98;;;6.30;;
54197;SDS011;40105;52.366;17.000;2022-09-19T05:47:37;15.50;;;7.13;;
54197;SDS011;40105;52.366;17.000;2022-09-19T05:50:04;13.50;;;6.45;;
54197;SDS011;40105;52.366;17.000;2022-09-19T05:52:32;13.60;;;6.90;;
54197;SDS011;40105;52.366;17.000;2022-09-19T05:55:16;12.75;;;7.03;;
54197;SDS011;40105;52.366;17.000;2022-09-19T05:57:44;12.17;;;6.30;;
54197;SDS011;40105;52.366;17.000;2022-09-19T06:00:13;13.30;;;6.72;;
54197;SDS011;40105;52.366;17.000;2022-09-19T06:02:38;12.43;;;6.30;;
54197;SDS011;40105;52.366;17.000;2022-09-19T06:05:04;12.40;;;6.23;;
54197;SDS011;40105;52.366;17.000;2022-09-19T06:07:29;14.77;;;7.18;;
54197;SDS011;40105;52.366;17.000;2022-09-19T06:09:54;17.13;;;7.77;;
54197;SDS011;40105;52.366;17.000;2022-09-19T06:12:20;13.85;;;6.55;;
54197;SDS011;40105;52.366;17.000;2022-09-19T06:14:46;11.93;;;6.27;;
54197;SDS011;40105;52.366;17.000;2022-09-19T06:17:11;12.05;;;6.43;;
54197;SDS011;40105;52.366;17.000;2022-09-19T06:19:39;11.02;;;6.10;;
54197;SDS011;40105;52.366;17.000;2022-09-19T06:22:05;9.65;;;5.35;;
54197;SDS011;40105;52.366;17.000;2022-09-19T06:24:30;14.77;;;6.55;;
54197;SDS011;40105;52.366;17.000;2022-09-19T06:26:55;13.83;;;6.77;;
54197;SDS011;40105;52.366;17.000;2022-09-19T06:29:21;12.13;;;5.73;;
54197;SDS011;40105;52.366;17.000;2022-09-19T06:31:46;12.30;;;6.60;;
54197;SDS011;40105;52.366;17.000;2022-09-19T06:34:11;11.63;;;5.63;;
54197;SDS011;40105;52.366;17.000;2022-09-19T06:36:37;13.98;;;5.95;;
54197;SDS011;40105;52.366;17.000;2022-09-19T06:39:02;11.82;;;5.60;;
54197;SDS011;40105;52.366;17.000;2022-09-19T06:41:28;16.00;;;6.80;;
54197;SDS011;40105;52.366;17.000;2022-09-19T06:43:53;9.73;;;5.45;;
54197;SDS011;40105;52.366;17.000;2022-09-19T06:46:18;11.13;;;5.30;;
54197;SDS011;40105;52.366;17.000;2022-09-19T06:48:46;8.32;;;4.55;;
54197;SDS011;40105;52.366;17.000;2022-09-19T06:51:12;7.07;;;4.80;;
54197;SDS011;40105;52.366;17.000;2022-09-19T06:53:38;7.80;;;4.80;;
54197;SDS011;40105;52.366;17.000;2022-09-19T06:56:03;11.40;;;4.13;;
54197;SDS011;40105;52.366;17.000;2022-09-19T06:58:28;10.10;;;4.70;;
54197;SDS011;40105;52.366;17.000;2022-09-19T07:00:53;10.37;;;4.30;;
54197;SDS011;40105;52.366;17.000;2022-09-19T07:03:19;16.30;;;4.33;;
54197;SDS011;40105;52.366;17.000;2022-09-19T07:05:44;10.40;;;5.32;;
54197;SDS011;40105;52.366;17.000;2022-09-19T07:08:10;9.25;;;4.78;;
54197;SDS011;40105;52.366;17.000;2022-09-19T07:10:36;11.20;;;5.47;;
54197;SDS011;40105;52.366;17.000;2022-09-19T07:13:02;11.60;;;4.83;;
54197;SDS011;40105;52.366;17.000;2022-09-19T07:15:28;6.68;;;2.30;;
54197;SDS011;40105;52.366;17.000;2022-09-19T07:17:54;8.90;;;3.75;;
54197;SDS011;40105;52.366;17.000;2022-09-19T07:20:19;10.02;;;4.30;;
54197;SDS011;40105;52.366;17.000;2022-09-19T07:22:44;8.17;;;4.30;;
54197;SDS011;40105;52.366;17.000;2022-09-19T07:25:10;13.77;;;3.47;;
54197;SDS011;40105;52.366;17.000;2022-09-19T07:27:35;7.38;;;4.05;;
54197;SDS011;40105;52.366;17.000;2022-09-19T07:30:01;10.55;;;4.55;;
54197;SDS011;40105;52.366;17.000;2022-09-19T07:32:27;11.88;;;5.65;;
54197;SDS011;40105;52.366;17.000;2022-09-19T07:34:53;8.88;;;3.60;;
54197;SDS011;40105;52.366;17.000;2022-09-19T07:37:18;10.20;;;3.73;;
54197;SDS011;40105;52.366;17.000;2022-09-19T07:39:43;7.53;;;3.80;;
54197;SDS011;40105;52.366;17.000;2022-09-19T07:42:08;10.63;;;4.17;;
54197;SDS011;40105;52.366;17.000;2022-09-19T07:44:33;23.63;;;4.20;;
54197;SDS011;40105;52.366;17.000;2022-09-19T07:46:58;11.90;;;4.20;;
54197;SDS011;40105;52.366;17.000;2022-09-19T07:49:42;16.98;;;4.63;;
54197;SDS011;40105;52.366;17.000;2022-09-19T07:52:07;5.73;;;3.53;;
54197;SDS011;40105;52.366;17.000;2022-09-19T07:54:32;8.20;;;4.20;;
54197;SDS011;40105;52.366;17.000;2022-09-19T07:56:58;6.60;;;4.25;;
54197;SDS011;40105;52.366;17.000;2022-09-19T07:59:24;5.88;;;3.47;;
54197;SDS011;40105;52.366;17.000;2022-09-19T08:01:49;5.60;;;3.60;;
54197;SDS011;40105;52.366;17.000;2022-09-19T08:04:14;8.40;;;3.03;;
54197;SDS011;40105;52.366;17.000;2022-09-19T08:06:39;8.83;;;3.57;;
54197;SDS011;40105;52.366;17.000;2022-09-19T08:09:04;8.37;;;4.67;;
54197;SDS011;40105;52.366;17.000;2022-09-19T08:11:30;10.60;;;4.80;;
54197;SDS011;40105;52.366;17.000;2022-09-19T08:14:00;9.07;;;4.60;;
54197;SDS011;40105;52.366;17.000;2022-09-19T08:16:25;9.70;;;5.23;;
54197;SDS011;40105;52.366;17.000;2022-09-19T08:18:50;14.20;;;4.67;;
54197;SDS011;40105;52.366;17.000;2022-09-19T08:21:16;13.23;;;5.10;;
54197;SDS011;40105;52.366;17.000;2022-09-19T08:23:41;7.33;;;4.97;;
54197;SDS011;40105;52.366;17.000;2022-09-19T08:26:06;12.00;;;5.23;;
54197;SDS011;40105;52.366;17.000;2022-09-19T08:28:31;12.40;;;5.30;;
54197;SDS011;40105;52.366;17.000;2022-09-19T08:30:59;7.97;;;5.10;;
54197;SDS011;40105;52.366;17.000;2022-09-19T08:33:25;12.55;;;5.05;;
54197;SDS011;40105;52.366;17.000;2022-09-19T08:35:51;7.28;;;4.88;;
54197;SDS011;40105;52.366;17.000;2022-09-19T08:38:17;11.07;;;5.30;;
54197;SDS011;40105;52.366;17.000;2022-09-19T08:48:51;8.45;;;4.85;;
54197;SDS011;40105;52.366;17.000;2022-09-19T08:53:51;17.35;;;5.28;;
54197;SDS011;40105;52.366;17.000;2022-09-19T08:56:17;9.73;;;5.15;;
54197;SDS011;40105;52.366;17.000;2022-09-19T08:58:45;9.32;;;5.25;;
54197;SDS011;40105;52.366;17.000;2022-09-19T09:01:12;14.73;;;6.70;;
54197;SDS011;40105;52.366;17.000;2022-09-19T09:06:36;14.55;;;6.43;;
54197;SDS011;40105;52.366;17.000;2022-09-19T09:09:05;12.68;;;5.57;;
54197;SDS011;40105;52.366;17.000;2022-09-19T09:17:08;9.73;;;5.10;;
54197;SDS011;40105;52.366;17.000;2022-09-19T09:24:47;13.77;;;5.70;;
54197;SDS011;40105;52.366;17.000;2022-09-19T09:27:18;8.20;;;4.53;;
54197;SDS011;40105;52.366;17.000;2022-09-19T09:29:49;13.25;;;5.15;;
54197;SDS011;40105;52.366;17.000;2022-09-19T09:34:44;8.85;;;4.80;;
54197;SDS011;40105;52.366;17.000;2022-09-19T09:39:43;9.20;;;3.05;;
54197;SDS011;40105;52.366;17.000;2022-09-19T09:42:36;12.75;;;3.50;;
54197;SDS011;40105;52.366;17.000;2022-09-19T09:49:56;7.57;;;4.43;;
54197;SDS011;40105;52.366;17.000;2022-09-19T09:54:53;7.63;;;4.03;;
54197;SDS011;40105;52.366;17.000;2022-09-19T09:57:40;10.77;;;3.95;;
54197;SDS011;40105;52.366;17.000;2022-09-19T10:00:11;7.18;;;4.00;;
54197;SDS011;40105;52.366;17.000;2022-09-19T10:06:27;6.53;;;3.35;;
54197;SDS011;40105;52.366;17.000;2022-09-19T10:08:28;8.07;;;4.30;;
54197;SDS011;40105;52.366;17.000;2022-09-19T10:10:59;6.40;;;3.83;;
54197;SDS011;40105;52.366;17.000;2022-09-19T10:13:27;8.98;;;4.18;;
54197;SDS011;40105;52.366;17.000;2022-09-19T10:15:57;9.98;;;3.97;;
54197;SDS011;40105;52.366;17.000;2022-09-19T10:18:28;7.63;;;3.45;;
54197;SDS011;40105;52.366;17.000;2022-09-19T10:20:55;6.93;;;3.75;;
54197;SDS011;40105;52.366;17.000;2022-09-19T10:23:24;6.82;;;3.72;;
54197;SDS011;40105;52.366;17.000;2022-09-19T10:25:57;6.22;;;3.25;;
54197;SDS011;40105;52.366;17.000;2022-09-19T10:28:26;9.07;;;4.55;;
54197;SDS011;40105;52.366;17.000;2022-09-19T10:30:56;8.88;;;4.43;;
54197;SDS011;40105;52.366;17.000;2022-09-19T10:33:26;7.43;;;4.15;;
54197;SDS011;40105;52.366;17.000;2022-09-19T10:35:53;6.07;;;3.53;;
54197;SDS011;40105;52.366;17.000;2022-09-19T10:38:24;5.72;;;3.42;;
54197;SDS011;40105;52.366;17.000;2022-09-19T10:40:55;6.22;;;3.22;;
54197;SDS011;40105;52.366;17.000;2022-09-19T10:43:26;6.10;;;2.90;;
54197;SDS011;40105;52.366;17.000;2022-09-19T10:45:55;6.53;;;2.95;;
54197;SDS011;40105;52.366;17.000;2022-09-19T10:48:25;6.65;;;3.22;;
54197;SDS011;40105;52.366;17.000;2022-09-19T10:50:51;10.68;;;3.53;;
54197;SDS011;40105;52.366;17.000;2022-09-19T10:53:36;5.88;;;2.85;;
54197;SDS011;40105;52.366;17.000;2022-09-19T10:56:04;7.18;;;2.65;;
54197;SDS011;40105;52.366;17.000;2022-09-19T10:58:32;4.78;;;2.40;;
54197;SDS011;40105;52.366;17.000;2022-09-19T11:01:04;4.95;;;2.45;;
54197;SDS011;40105;52.366;17.000;2022-09-19T11:03:31;5.50;;;2.65;;
54197;SDS011;40105;52.366;17.000;2022-09-19T11:06:13;5.78;;;2.42;;
54197;SDS011;40105;52.366;17.000;2022-09-19T11:14:06;9.63;;;2.63;;
54197;SDS011;40105;52.366;17.000;2022-09-19T11:16:35;5.15;;;2.45;;
54197;SDS011;40105;52.366;17.000;2022-09-19T11:24:24;4.05;;;2.05;;
54197;SDS011;40105;52.366;17.000;2022-09-19T11:37:20;4.93;;;2.67;;
54197;SDS011;40105;52.366;17.000;2022-09-19T11:39:59;4.25;;;2.47;;
54197;SDS011;40105;52.366;17.000;2022-09-19T11:45:16;4.28;;;2.53;;
54197;SDS011;40105;52.366;17.000;2022-09-19T11:50:20;3.28;;;2.28;;
54197;SDS011;40105;52.366;17.000;2022-09-19T11:58:45;3.22;;;2.15;;
54197;SDS011;40105;52.366;17.000;2022-09-19T12:01:22;5.10;;;2.63;;
54197;SDS011;40105;52.366;17.000;2022-09-19T12:09:16;2.63;;;1.83;;
54197;SDS011;40105;52.366;17.000;2022-09-19T12:11:49;7.43;;;4.47;;
54197;SDS011;40105;52.366;17.000;2022-09-19T12:14:18;5.38;;;2.35;;
54197;SDS011;40105;52.366;17.000;2022-09-19T12:16:46;3.70;;;2.28;;
54197;SDS011;40105;52.366;17.000;2022-09-19T12:21:59;2.83;;;2.00;;
54197;SDS011;40105;52.366;17.000;2022-09-19T12:24:27;2.90;;;1.77;;
54197;SDS011;40105;52.366;17.000;2022-09-19T12:29:48;3.13;;;1.85;;
54197;SDS011;40105;52.366;17.000;2022-09-19T12:32:27;3.55;;;1.70;;
54197;SDS011;40105;52.366;17.000;2022-09-19T12:34:58;1.88;;;1.55;;
54197;SDS011;40105;52.366;17.000;2022-09-19T12:37:37;2.10;;;1.30;;
54197;SDS011;40105;52.366;17.000;2022-09-19T12:40:07;4.20;;;1.80;;
54197;SDS011;40105;52.366;17.000;2022-09-19T12:42:42;2.67;;;1.58;;
54197;SDS011;40105;52.366;17.000;2022-09-19T12:45:18;3.25;;;1.63;;
54197;SDS011;40105;52.366;17.000;2022-09-19T12:50:38;2.63;;;1.60;;
54197;SDS011;40105;52.366;17.000;2022-09-19T12:55:38;2.60;;;1.33;;
54197;SDS011;40105;52.366;17.000;2022-09-19T13:00:36;5.88;;;1.13;;
54197;SDS011;40105;52.366;17.000;2022-09-19T13:03:12;1.83;;;1.10;;
54197;SDS011;40105;52.366;17.000;2022-09-19T13:05:42;2.83;;;1.15;;
54197;SDS011;40105;52.366;17.000;2022-09-19T13:08:14;3.70;;;1.25;;
54197;SDS011;40105;52.366;17.000;2022-09-19T13:10:44;3.00;;;1.00;;
54197;SDS011;40105;52.366;17.000;2022-09-19T13:13:25;1.55;;;0.98;;
54197;SDS011;40105;52.366;17.000;2022-09-19T13:15:52;3.67;;;1.17;;
54197;SDS011;40105;52.366;17.000;2022-09-19T13:18:19;1.40;;;1.10;;
54197;SDS011;40105;52.366;17.000;2022-09-19T13:21:04;4.68;;;1.10;;
54197;SDS011;40105;52.366;17.000;2022-09-19T13:23:50;1.92;;;1.08;;
54197;SDS011;40105;52.366;17.000;2022-09-19T13:26:17;2.72;;;1.25;;
54197;SDS011;40105;52.366;17.000;2022-09-19T13:28:48;2.58;;;1.15;;
54197;SDS011;40105;52.366;17.000;2022-09-19T13:31:13;1.70;;;1.13;;
54197;SDS011;40105;52.366;17.000;2022-09-19T13:36:11;4.97;;;1.20;;
54197;SDS011;40105;52.366;17.000;2022-09-19T13:38:40;1.42;;;0.98;;
54197;SDS011;40105;52.366;17.000;2022-09-19T13:43:55;1.67;;;0.90;;
54197;SDS011;40105;52.366;17.000;2022-09-19T13:46:26;1.85;;;1.15;;
54197;SDS011;40105;52.366;17.000;2022-09-19T13:48:55;2.97;;;1.10;;
54197;SDS011;40105;52.366;17.000;2022-09-19T13:51:37;5.72;;;0.90;;
54197;SDS011;40105;52.366;17.000;2022-09-19T13:57:01;1.38;;;0.70;;
54197;SDS011;40105;52.366;17.000;2022-09-19T14:01:53;1.30;;;0.70;;
54197;SDS011;40105;52.366;17.000;2022-09-19T14:04:18;2.25;;;0.85;;
54197;SDS011;40105;52.366;17.000;2022-09-19T14:07:03;4.43;;;0.90;;
54197;SDS011;40105;52.366;17.000;2022-09-19T14:11:58;0.70;;;0.60;;
54197;SDS011;40105;52.366;17.000;2022-09-19T14:17:12;1.63;;;0.80;;
54197;SDS011;40105;52.366;17.000;2022-09-19T14:19:48;2.33;;;0.75;;
54197;SDS011;40105;52.366;17.000;2022-09-19T14:24:54;1.23;;;0.73;;
54197;SDS011;40105;52.366;17.000;2022-09-19T14:27:35;0.60;;;0.60;;
54197;SDS011;40105;52.366;17.000;2022-09-19T14:30:04;1.23;;;0.50;;
54197;SDS011;40105;52.366;17.000;2022-09-19T14:32:34;1.77;;;0.90;;
54197;SDS011;40105;52.366;17.000;2022-09-19T14:40:17;1.45;;;0.80;;
54197;SDS011;40105;52.366;17.000;2022-09-19T14:47:57;1.70;;;0.80;;
54197;SDS011;40105;52.366;17.000;2022-09-19T14:50:45;2.97;;;1.10;;
54197;SDS011;40105;52.366;17.000;2022-09-19T14:53:14;3.35;;;0.55;;
54197;SDS011;40105;52.366;17.000;2022-09-19T14:55:46;8.68;;;0.45;;
54197;SDS011;40105;52.366;17.000;2022-09-19T15:00:49;0.57;;;0.40;;
54197;SDS011;40105;52.366;17.000;2022-09-19T15:03:18;5.13;;;0.22;;
54197;SDS011;40105;52.366;17.000;2022-09-19T15:05:44;0.63;;;0.30;;
54197;SDS011;40105;52.366;17.000;2022-09-19T15:08:13;5.27;;;1.37;;
54197;SDS011;40105;52.366;17.000;2022-09-19T15:10:40;5.05;;;1.40;;
54197;SDS011;40105;52.366;17.000;2022-09-19T15:15:34;7.85;;;3.22;;
54197;SDS011;40105;52.366;17.000;2022-09-19T15:18:01;6.22;;;2.83;;
54197;SDS011;40105;52.366;17.000;2022-09-19T15:20:28;1.52;;;0.70;;
54197;SDS011;40105;52.366;17.000;2022-09-19T15:22:55;9.00;;;1.70;;
54197;SDS011;40105;52.366;17.000;2022-09-19T15:25:31;2.22;;;0.85;;
54197;SDS011;40105;52.366;17.000;2022-09-19T15:28:00;1.58;;;0.85;;
54197;SDS011;40105;52.366;17.000;2022-09-19T15:30:34;2.72;;;0.77;;
54197;SDS011;40105;52.366;17.000;2022-09-19T15:33:03;5.43;;;1.00;;
54197;SDS011;40105;52.366;17.000;2022-09-19T15:35:29;5.82;;;2.70;;
54197;SDS011;40105;52.366;17.000;2022-09-19T15:37:56;9.15;;;4.15;;
54197;SDS011;40105;52.366;17.000;2022-09-19T15:42:52;4.43;;;1.80;;
54197;SDS011;40105;52.366;17.000;2022-09-19T15:47:52;5.25;;;2.28;;
54197;SDS011;40105;52.366;17.000;2022-09-19T15:50:21;7.85;;;2.72;;
54197;SDS011;40105;52.366;17.000;2022-09-19T15:52:47;2.78;;;1.20;;
54197;SDS011;40105;52.366;17.000;2022-09-19T15:55:22;1.25;;;0.70;;
54197;SDS011;40105;52.366;17.000;2022-09-19T15:57:54;1.30;;;0.85;;
54197;SDS011;40105;52.366;17.000;2022-09-19T16:00:21;3.00;;;0.95;;
54197;SDS011;40105;52.366;17.000;2022-09-19T16:02:59;1.13;;;0.70;;
54197;SDS011;40105;52.366;17.000;2022-09-19T16:05:26;4.05;;;0.80;;
54197;SDS011;40105;52.366;17.000;2022-09-19T16:07:53;4.85;;;0.77;;
54197;SDS011;40105;52.366;17.000;2022-09-19T16:10:38;2.35;;;0.98;;
54197;SDS011;40105;52.366;17.000;2022-09-19T16:13:04;0.95;;;0.63;;
54197;SDS011;40105;52.366;17.000;2022-09-19T16:15:34;3.60;;;0.90;;
54197;SDS011;40105;52.366;17.000;2022-09-19T16:22:55;4.00;;;0.70;;
54197;SDS011;40105;52.366;17.000;2022-09-19T16:25:20;1.42;;;0.68;;
54197;SDS011;40105;52.366;17.000;2022-09-19T16:27:45;3.13;;;1.00;;
54197;SDS011;40105;52.366;17.000;2022-09-19T16:30:10;5.37;;;0.70;;
54197;SDS011;40105;52.366;17.000;2022-09-19T16:32:36;1.42;;;0.82;;
54197;SDS011;40105;52.366;17.000;2022-09-19T16:35:12;4.25;;;1.73;;
54197;SDS011;40105;52.366;17.000;2022-09-19T16:37:39;6.05;;;1.60;;
54197;SDS011;40105;52.366;17.000;2022-09-19T16:40:05;8.00;;;3.25;;
54197;SDS011;40105;52.366;17.000;2022-09-19T16:42:31;18.92;;;10.18;;
54197;SDS011;40105;52.366;17.000;2022-09-19T16:45:57;10.00;;;4.60;;
54197;SDS011;40105;52.366;17.000;2022-09-19T16:47:51;10.20;;;2.95;;
54197;SDS011;40105;52.366;17.000;2022-09-19T16:50:21;2.85;;;1.75;;
54197;SDS011;40105;52.366;17.000;2022-09-19T16:52:50;5.50;;;2.30;;
54197;SDS011;40105;52.366;17.000;2022-09-19T16:55:23;11.07;;;3.25;;
54197;SDS011;40105;52.366;17.000;2022-09-19T16:57:50;9.38;;;3.58;;
54197;SDS011;40105;52.366;17.000;2022-09-19T17:00:18;11.35;;;6.72;;
54197;SDS011;40105;52.366;17.000;2022-09-19T17:02:44;14.43;;;7.77;;
54197;SDS011;40105;52.366;17.000;2022-09-19T17:05:12;13.52;;;8.45;;
54197;SDS011;40105;52.366;17.000;2022-09-19T17:07:38;15.55;;;7.18;;
54197;SDS011;40105;52.366;17.000;2022-09-19T17:10:03;31.50;;;13.67;;
54197;SDS011;40105;52.366;17.000;2022-09-19T17:12:29;15.53;;;8.10;;
54197;SDS011;40105;52.366;17.000;2022-09-19T17:14:54;30.85;;;7.65;;
54197;SDS011;40105;52.366;17.000;2022-09-19T17:17:19;16.63;;;6.50;;
54197;SDS011;40105;52.366;17.000;2022-09-19T17:19:44;15.10;;;7.57;;
54197;SDS011;40105;52.366;17.000;2022-09-19T17:22:10;23.95;;;11.52;;
54197;SDS011;40105;52.366;17.000;2022-09-19T17:24:37;25.80;;;14.85;;
54197;SDS011;40105;52.366;17.000;2022-09-19T17:27:04;30.38;;;14.25;;
54197;SDS011;40105;52.366;17.000;2022-09-19T17:29:29;26.30;;;13.97;;
54197;SDS011;40105;52.366;17.000;2022-09-19T17:31:55;25.27;;;12.52;;